createdAt,value
2022-12-11T00:01:23.003Z,3.55
2022-12-11T00:03:52.169Z,3.95
2022-12-11T00:06:31.332Z,3.47
2022-12-11T00:09:02.784Z,2.97
2022-12-11T00:11:31.563Z,3.50
2022-12-11T00:14:00.276Z,3.50
2022-12-11T00:16:29.132Z,3.85
2022-12-11T00:18:57.941Z,2.57
2022-12-11T00:21:28.353Z,3.28
2022-12-11T00:23:57.464Z,3.92
2022-12-11T00:26:26.335Z,3.17
2022-12-11T00:28:58.482Z,3.28
2022-12-11T00:31:27.366Z,3.10
2022-12-11T00:33:56.763Z,2.65
2022-12-11T00:36:28.923Z,1.98
2022-12-11T00:38:58.038Z,3.50
2022-12-11T00:41:27.092Z,3.50
2022-12-11T00:43:56.266Z,4.60
2022-12-11T00:46:25.095Z,3.95
2022-12-11T00:48:54.081Z,4.00
2022-12-11T00:51:23.182Z,2.00
2022-12-11T00:53:54.075Z,2.35
2022-12-11T00:56:24.709Z,2.60
2022-12-11T00:58:53.586Z,1.95
2022-12-11T01:01:25.357Z,2.88
2022-12-11T01:03:55.227Z,2.38
2022-12-11T01:06:26.704Z,2.70
2022-12-11T01:09:12.628Z,2.20
2022-12-11T01:11:42.868Z,2.05
2022-12-11T01:14:15.588Z,2.65
2022-12-11T01:16:44.755Z,2.97
2022-12-11T01:19:13.667Z,2.92
2022-12-11T01:21:42.692Z,2.57
2022-12-11T01:24:12.833Z,2.00
2022-12-11T01:26:41.712Z,1.85
2022-12-11T01:29:10.525Z,2.05
2022-12-11T01:31:40.017Z,2.05
2022-12-11T01:34:08.853Z,2.93
2022-12-11T01:36:37.701Z,1.73
2022-12-11T01:39:06.551Z,13.60
2022-12-11T01:41:36.733Z,2.22
2022-12-11T01:44:09.906Z,2.05
2022-12-11T01:46:39.418Z,4.43
2022-12-11T01:49:13.081Z,1.90
2022-12-11T01:51:50.494Z,1.75
2022-12-11T01:54:24.148Z,2.63
2022-12-11T01:56:59.277Z,2.30
2022-12-11T01:59:34.191Z,2.23
2022-12-11T02:02:09.129Z,2.10
2022-12-11T02:04:41.544Z,1.20
2022-12-11T02:07:12.206Z,1.65
2022-12-11T02:09:46.392Z,1.98
2022-12-11T02:12:27.871Z,1.13
2022-12-11T02:15:13.674Z,1.30
2022-12-11T02:17:49.867Z,1.60
2022-12-11T02:20:29.557Z,1.45
2022-12-11T02:23:34.624Z,2.97
2022-12-11T02:26:21.809Z,2.30
2022-12-11T02:28:58.026Z,2.70
2022-12-11T02:31:37.586Z,2.10
2022-12-11T02:34:14.421Z,2.03
2022-12-11T02:36:49.966Z,1.55
2022-12-11T02:39:22.596Z,3.50
2022-12-11T02:41:53.338Z,2.33
2022-12-11T02:44:28.735Z,2.20
2022-12-11T02:46:59.551Z,2.25
2022-12-11T02:49:30.310Z,2.10
2022-12-11T02:52:03.599Z,2.10
2022-12-11T02:54:36.890Z,2.55
2022-12-11T02:57:12.880Z,2.28
2022-12-11T02:59:46.533Z,2.03
2022-12-11T03:02:18.937Z,2.45
2022-12-11T03:04:49.894Z,2.00
2022-12-11T03:07:25.148Z,2.40
2022-12-11T03:09:54.670Z,2.47
2022-12-11T03:12:29.206Z,1.77
2022-12-11T03:15:05.409Z,3.13
2022-12-11T03:17:45.779Z,2.20
2022-12-11T03:20:26.168Z,2.10
2022-12-11T03:23:05.832Z,1.63
2022-12-11T03:25:45.880Z,2.20
2022-12-11T03:28:21.331Z,2.92
2022-12-11T03:30:55.681Z,2.00
2022-12-11T03:33:32.243Z,1.48
2022-12-11T03:36:07.181Z,2.40
2022-12-11T03:38:42.837Z,4.22
2022-12-11T03:41:14.996Z,3.75
2022-12-11T03:43:44.374Z,3.63
2022-12-11T03:46:17.551Z,3.97
2022-12-11T03:48:50.063Z,2.67
2022-12-11T03:51:19.719Z,4.03
2022-12-11T03:53:49.998Z,4.80
2022-12-11T03:56:22.246Z,4.23
2022-12-11T03:58:51.152Z,3.88
2022-12-11T04:01:21.451Z,4.07
2022-12-11T04:03:50.431Z,3.22
2022-12-11T04:06:19.212Z,3.40
2022-12-11T04:08:47.974Z,4.00
2022-12-11T04:11:33.907Z,2.95
2022-12-11T04:14:20.328Z,2.85
2022-12-11T04:16:50.642Z,2.85
2022-12-11T04:19:37.705Z,2.35
2022-12-11T04:22:26.568Z,1.67
2022-12-11T04:24:55.518Z,1.85
2022-12-11T04:27:42.112Z,1.98
2022-12-11T04:30:18.531Z,2.50
2022-12-11T04:32:49.326Z,2.45
2022-12-11T04:35:18.743Z,2.47
2022-12-11T04:37:48.339Z,3.20
2022-12-11T04:40:20.247Z,3.22
2022-12-11T04:42:49.135Z,2.70
2022-12-11T04:45:18.119Z,3.22
2022-12-11T04:47:48.529Z,2.67
2022-12-11T04:50:20.608Z,2.30
2022-12-11T04:52:49.546Z,2.60
2022-12-11T04:55:18.809Z,3.35
2022-12-11T04:57:47.750Z,2.63
2022-12-11T05:00:19.708Z,2.77
2022-12-11T05:02:51.327Z,3.58
2022-12-11T05:05:21.878Z,3.15
2022-12-11T05:07:50.722Z,3.15
2022-12-11T05:10:19.942Z,3.22
2022-12-11T05:12:48.649Z,3.10
2022-12-11T05:15:17.473Z,2.72
2022-12-11T05:17:46.260Z,3.20
2022-12-11T05:20:16.960Z,4.25
2022-12-11T05:22:46.290Z,2.60
2022-12-11T05:25:15.125Z,2.53
2022-12-11T05:27:44.047Z,2.35
2022-12-11T05:30:13.465Z,3.05
2022-12-11T05:32:42.481Z,2.38
2022-12-11T05:35:11.785Z,2.30
2022-12-11T05:37:42.222Z,3.23
2022-12-11T05:40:13.211Z,3.13
2022-12-11T05:42:42.718Z,2.67
2022-12-11T05:45:12.997Z,3.97
2022-12-11T05:47:44.651Z,2.40
2022-12-11T05:50:13.483Z,2.80
2022-12-11T05:52:44.384Z,3.45
2022-12-11T05:55:13.450Z,3.05
2022-12-11T05:57:42.448Z,3.38
2022-12-11T06:00:14.176Z,3.45
2022-12-11T06:02:43.203Z,2.93
2022-12-11T06:05:12.208Z,3.15
2022-12-11T06:07:42.560Z,9.07
2022-12-11T06:10:11.936Z,4.97
2022-12-11T06:12:41.423Z,2.75
2022-12-11T06:15:14.072Z,4.80
2022-12-11T06:17:42.859Z,3.67
2022-12-11T06:20:12.731Z,3.33
2022-12-11T06:22:42.973Z,3.30
2022-12-11T06:25:11.938Z,5.18
2022-12-11T06:27:41.586Z,5.63
2022-12-11T06:30:12.521Z,4.15
2022-12-11T06:32:42.209Z,4.70
2022-12-11T06:35:11.935Z,6.60
2022-12-11T06:37:42.601Z,7.75
2022-12-11T06:40:12.999Z,8.10
2022-12-11T06:42:41.885Z,5.57
2022-12-11T06:45:12.372Z,5.93
2022-12-11T06:47:41.556Z,5.20
2022-12-11T06:50:11.753Z,4.85
2022-12-11T06:52:40.491Z,4.13
2022-12-11T06:55:11.420Z,5.05
2022-12-11T06:57:41.929Z,5.20
2022-12-11T07:00:12.741Z,6.93
2022-12-11T07:02:41.711Z,5.20
2022-12-11T07:05:11.367Z,6.00
2022-12-11T07:07:43.131Z,6.00
2022-12-11T07:10:13.690Z,6.10
2022-12-11T07:12:44.248Z,5.55
2022-12-11T07:15:13.299Z,4.57
2022-12-11T07:17:42.553Z,4.07
2022-12-11T07:20:12.255Z,4.93
2022-12-11T07:22:46.278Z,4.85
2022-12-11T07:25:17.258Z,4.65
2022-12-11T07:27:46.053Z,4.78
2022-12-11T07:30:15.678Z,3.40
2022-12-11T07:32:44.736Z,4.85
2022-12-11T07:35:13.829Z,4.60
2022-12-11T07:37:42.938Z,4.45
2022-12-11T07:40:13.605Z,5.38
2022-12-11T07:42:46.242Z,6.30
2022-12-11T07:45:15.617Z,6.53
2022-12-11T07:47:44.444Z,8.70
2022-12-11T07:50:13.259Z,5.75
2022-12-11T07:52:41.991Z,5.00
2022-12-11T07:55:11.766Z,5.60
2022-12-11T07:57:41.281Z,4.57
2022-12-11T08:00:13.229Z,4.88
2022-12-11T08:02:42.020Z,2.72
2022-12-11T08:05:13.252Z,5.30
2022-12-11T08:07:43.957Z,7.23
2022-12-11T08:10:13.177Z,4.30
2022-12-11T08:12:42.631Z,6.13
2022-12-11T08:15:13.932Z,5.75
2022-12-11T08:17:43.106Z,4.60
2022-12-11T08:20:12.429Z,5.03
2022-12-11T08:22:41.122Z,4.65
2022-12-11T08:25:10.964Z,4.35
2022-12-11T08:27:39.847Z,4.55
2022-12-11T08:30:12.787Z,2.80
2022-12-11T08:32:41.605Z,4.40
2022-12-11T08:35:12.108Z,5.38
2022-12-11T08:37:41.072Z,5.55
2022-12-11T08:40:13.500Z,6.20
2022-12-11T08:42:42.316Z,5.80
2022-12-11T08:45:13.595Z,6.43
2022-12-11T08:47:42.547Z,8.70
2022-12-11T08:50:12.230Z,7.22
2022-12-11T08:52:41.167Z,7.30
2022-12-11T08:55:11.629Z,6.10
2022-12-11T08:57:41.597Z,7.17
2022-12-11T09:00:16.481Z,7.70
2022-12-11T09:02:45.385Z,5.47
2022-12-11T09:05:14.268Z,5.13
2022-12-11T09:07:43.067Z,4.90
2022-12-11T09:10:12.293Z,4.07
2022-12-11T09:12:41.262Z,4.18
2022-12-11T09:15:11.014Z,4.65
2022-12-11T09:17:41.237Z,3.97
2022-12-11T09:20:11.009Z,3.50
2022-12-11T09:22:39.904Z,3.90
2022-12-11T09:25:10.002Z,5.28
2022-12-11T09:27:39.024Z,3.92
2022-12-11T09:30:09.939Z,4.35
2022-12-11T09:32:40.139Z,3.33
2022-12-11T09:35:11.513Z,3.60
2022-12-11T09:37:40.721Z,2.45
2022-12-11T09:40:16.183Z,4.22
2022-12-11T09:42:55.806Z,3.38
2022-12-11T09:45:27.949Z,3.67
2022-12-11T09:47:58.336Z,3.33
2022-12-11T09:50:31.344Z,3.90
2022-12-11T09:53:08.615Z,3.13
2022-12-11T09:55:55.546Z,4.90
2022-12-11T09:58:34.470Z,4.50
2022-12-11T10:01:09.750Z,4.17
2022-12-11T10:04:18.263Z,2.20
2022-12-11T10:07:05.275Z,2.83
2022-12-11T10:09:50.800Z,1.83
2022-12-11T10:12:38.424Z,4.22
2022-12-11T10:15:42.482Z,2.87
2022-12-11T10:18:17.679Z,2.92
2022-12-11T10:20:51.266Z,3.80
2022-12-11T10:23:28.953Z,3.95
2022-12-11T10:26:09.143Z,3.40
2022-12-11T10:28:38.622Z,3.80
2022-12-11T10:31:19.543Z,3.92
2022-12-11T10:34:14.363Z,3.92
2022-12-11T10:36:45.620Z,3.92
2022-12-11T10:39:19.434Z,4.50
2022-12-11T10:41:52.218Z,4.13
2022-12-11T10:44:23.587Z,3.97
2022-12-11T10:47:06.581Z,4.43
2022-12-11T10:49:37.953Z,4.60
2022-12-11T10:52:24.853Z,4.25
2022-12-11T10:55:03.422Z,5.53
2022-12-11T10:57:37.151Z,5.88
2022-12-11T11:00:08.272Z,3.70
2022-12-11T11:02:40.441Z,3.30
2022-12-11T11:05:19.214Z,4.32
2022-12-11T11:08:19.373Z,3.90
2022-12-11T11:10:57.479Z,3.92
2022-12-11T11:13:29.390Z,3.05
2022-12-11T11:16:03.988Z,4.85
2022-12-11T11:18:34.081Z,3.67
2022-12-11T11:21:09.005Z,4.90
2022-12-11T11:23:46.221Z,4.18
2022-12-11T11:26:16.493Z,4.10
2022-12-11T11:28:53.513Z,4.10
2022-12-11T11:31:32.618Z,4.97
2022-12-11T11:34:05.320Z,4.27
2022-12-11T11:36:38.010Z,4.53
2022-12-11T11:39:28.103Z,6.25
2022-12-11T11:42:06.119Z,5.47
2022-12-11T11:44:40.915Z,5.82
2022-12-11T11:47:18.489Z,6.43
2022-12-11T11:49:59.683Z,7.22
2022-12-11T11:52:38.021Z,7.43
2022-12-11T11:55:21.758Z,5.57
2022-12-11T11:58:02.278Z,6.72
2022-12-11T12:00:34.089Z,5.90
2022-12-11T12:03:11.065Z,6.38
2022-12-11T12:05:56.775Z,6.05
2022-12-11T12:08:54.576Z,6.13
2022-12-11T12:11:37.693Z,6.75
2022-12-11T12:14:50.475Z,5.00
2022-12-11T12:17:26.472Z,4.30
2022-12-11T12:20:11.917Z,5.10
2022-12-11T12:23:05.112Z,5.15
2022-12-11T12:25:42.085Z,3.42
2022-12-11T12:28:31.697Z,5.97
2022-12-11T12:31:18.575Z,5.82
2022-12-11T12:34:00.142Z,5.07
2022-12-11T12:36:41.359Z,4.97
2022-12-11T12:39:21.705Z,4.07
2022-12-11T12:42:07.443Z,5.87
2022-12-11T12:44:52.130Z,6.05
2022-12-11T12:47:22.245Z,4.22
2022-12-11T12:49:54.416Z,4.68
2022-12-11T12:52:32.076Z,5.65
2022-12-11T12:55:22.706Z,5.70
2022-12-11T12:57:55.811Z,4.90
2022-12-11T13:00:36.153Z,4.75
2022-12-11T13:03:18.364Z,5.22
2022-12-11T13:06:00.534Z,5.07
2022-12-11T13:08:35.913Z,4.37
2022-12-11T13:11:09.203Z,4.38
2022-12-11T13:13:41.854Z,4.95
2022-12-11T13:16:34.732Z,2.92
2022-12-11T13:19:03.781Z,4.28
2022-12-11T13:21:35.747Z,2.90
2022-12-11T13:24:27.421Z,4.53
2022-12-11T13:26:57.074Z,4.55
2022-12-11T13:29:35.821Z,3.00
2022-12-11T13:32:24.251Z,4.80
2022-12-11T13:34:58.081Z,4.00
2022-12-11T13:37:33.226Z,3.72
2022-12-11T13:40:09.232Z,5.57
2022-12-11T13:42:49.645Z,5.68
2022-12-11T13:45:28.070Z,6.47
2022-12-11T13:48:00.245Z,4.73
2022-12-11T13:50:34.549Z,5.95
2022-12-11T13:53:05.036Z,5.50
2022-12-11T13:55:35.812Z,4.57
2022-12-11T13:58:04.618Z,4.22
2022-12-11T14:00:34.406Z,4.10
2022-12-11T14:03:08.495Z,3.83
2022-12-11T14:05:37.791Z,4.20
2022-12-11T14:08:11.338Z,3.60
2022-12-11T14:10:41.628Z,4.47
2022-12-11T14:13:23.886Z,4.03
2022-12-11T14:15:53.967Z,4.55
2022-12-11T14:18:29.139Z,3.78
2022-12-11T14:21:00.856Z,4.65
2022-12-11T14:23:32.749Z,3.80
2022-12-11T14:26:05.018Z,3.23
2022-12-11T14:28:43.466Z,2.55
2022-12-11T14:31:19.450Z,2.90
2022-12-11T14:33:54.350Z,2.72
2022-12-11T14:36:24.827Z,3.78
2022-12-11T14:39:01.574Z,3.53
2022-12-11T14:41:44.113Z,3.10
2022-12-11T14:44:18.678Z,3.60
2022-12-11T14:46:51.537Z,3.65
2022-12-11T14:49:32.806Z,3.53
2022-12-11T14:52:02.785Z,3.90
2022-12-11T14:54:38.761Z,3.58
2022-12-11T14:57:09.617Z,2.42
2022-12-11T14:59:47.223Z,4.70
2022-12-11T15:02:31.165Z,3.13
2022-12-11T15:05:23.624Z,2.80
2022-12-11T15:07:59.763Z,3.72
2022-12-11T15:10:37.658Z,4.78
2022-12-11T15:13:08.824Z,4.95
2022-12-11T15:15:46.660Z,4.70
2022-12-11T15:18:25.567Z,2.40
2022-12-11T15:21:01.441Z,2.80
2022-12-11T15:23:31.374Z,4.30
2022-12-11T15:26:03.974Z,3.17
2022-12-11T15:28:36.551Z,5.03
2022-12-11T15:31:09.211Z,5.50
2022-12-11T15:33:48.153Z,5.03
2022-12-11T15:36:27.811Z,4.80
2022-12-11T15:38:56.545Z,4.85
2022-12-11T15:41:27.000Z,5.10
2022-12-11T15:43:59.993Z,4.73
2022-12-11T15:46:29.283Z,4.93
2022-12-11T15:48:59.091Z,4.20
2022-12-11T15:51:29.254Z,4.53
2022-12-11T15:53:58.160Z,5.07
2022-12-11T15:56:27.456Z,4.07
2022-12-11T15:59:01.530Z,4.38
2022-12-11T16:01:30.299Z,4.60
2022-12-11T16:04:03.333Z,4.60
2022-12-11T16:06:35.749Z,5.22
2022-12-11T16:09:05.749Z,3.07
2022-12-11T16:11:34.567Z,2.08
2022-12-11T16:14:04.563Z,3.00
2022-12-11T16:16:37.488Z,2.40
2022-12-11T16:19:06.338Z,1.70
2022-12-11T16:21:36.526Z,2.80
2022-12-11T16:24:05.872Z,2.63
2022-12-11T16:26:34.803Z,3.10
2022-12-11T16:29:03.776Z,4.43
2022-12-11T16:31:33.657Z,3.55
2022-12-11T16:34:02.604Z,3.23
2022-12-11T16:36:31.458Z,4.78
2022-12-11T16:39:01.867Z,3.35
2022-12-11T16:41:30.631Z,2.75
2022-12-11T16:44:02.234Z,3.15
2022-12-11T16:46:31.277Z,3.90
2022-12-11T16:49:00.198Z,2.95
2022-12-11T16:51:29.178Z,2.17
2022-12-11T16:53:58.301Z,4.95
2022-12-11T16:56:28.657Z,5.25
2022-12-11T16:58:57.984Z,2.43
2022-12-11T17:01:27.391Z,2.63
2022-12-11T17:03:56.242Z,3.13
2022-12-11T17:06:25.213Z,4.72
2022-12-11T17:08:54.393Z,4.85
2022-12-11T17:11:26.307Z,2.73
2022-12-11T17:13:58.225Z,5.40
2022-12-11T17:16:30.522Z,5.25
2022-12-11T17:18:59.842Z,5.15
2022-12-11T17:21:28.788Z,4.63
2022-12-11T17:23:57.518Z,4.67
2022-12-11T17:26:28.193Z,4.00
2022-12-11T17:28:59.687Z,4.68
2022-12-11T17:31:28.635Z,4.85
2022-12-11T17:34:00.706Z,3.08
2022-12-11T17:36:29.750Z,5.00
2022-12-11T17:38:58.545Z,3.70
2022-12-11T17:41:27.590Z,5.00
2022-12-11T17:43:58.598Z,3.97
2022-12-11T17:46:28.094Z,4.18
2022-12-11T17:49:00.104Z,5.50
2022-12-11T17:51:29.027Z,5.00
2022-12-11T17:53:58.522Z,4.00
2022-12-11T17:56:28.080Z,4.90
2022-12-11T17:58:59.472Z,5.50
2022-12-11T18:01:28.679Z,5.57
2022-12-11T18:04:00.502Z,5.47
2022-12-11T18:06:31.006Z,3.45
2022-12-11T18:09:00.091Z,5.03
2022-12-11T18:11:28.977Z,3.08
2022-12-11T18:13:59.820Z,7.27
2022-12-11T18:16:33.027Z,4.07
2022-12-11T18:19:02.454Z,3.70
2022-12-11T18:21:34.599Z,6.45
2022-12-11T18:24:04.456Z,6.07
2022-12-11T18:26:33.396Z,4.50
2022-12-11T18:29:07.469Z,6.25
2022-12-11T18:31:42.137Z,2.95
2022-12-11T18:34:12.440Z,6.07
2022-12-11T18:36:42.159Z,5.35
2022-12-11T18:39:11.991Z,6.47
2022-12-11T18:41:40.736Z,4.82
2022-12-11T18:44:11.140Z,6.68
2022-12-11T18:46:40.594Z,3.45
2022-12-11T18:49:09.442Z,5.07
2022-12-11T18:51:38.380Z,3.97
2022-12-11T18:54:07.326Z,3.72
2022-12-11T18:56:36.644Z,4.47
2022-12-11T18:59:05.824Z,3.55
2022-12-11T19:01:36.876Z,4.88
2022-12-11T19:04:10.722Z,4.07
2022-12-11T19:06:40.211Z,2.50
2022-12-11T19:09:10.411Z,5.28
2022-12-11T19:11:43.643Z,2.20
2022-12-11T19:14:13.610Z,3.28
2022-12-11T19:16:45.796Z,3.73
2022-12-11T19:19:16.693Z,6.88
2022-12-11T19:21:46.707Z,4.25
2022-12-11T19:24:19.502Z,3.33
2022-12-11T19:26:49.330Z,1.70
2022-12-11T19:29:23.300Z,2.60
2022-12-11T19:31:54.076Z,2.38
2022-12-11T19:34:23.369Z,2.28
2022-12-11T19:36:52.283Z,3.30
2022-12-11T19:39:22.163Z,3.33
2022-12-11T19:41:51.278Z,1.97
2022-12-11T19:44:20.019Z,2.20
2022-12-11T19:46:48.890Z,2.40
2022-12-11T19:49:19.186Z,2.88
2022-12-11T19:51:47.938Z,4.18
2022-12-11T19:54:18.986Z,2.03
2022-12-11T19:56:48.046Z,2.08
2022-12-11T19:59:19.218Z,2.15
2022-12-11T20:01:49.482Z,1.05
2022-12-11T20:04:20.262Z,1.95
2022-12-11T20:06:49.721Z,1.60
2022-12-11T20:09:19.284Z,2.20
2022-12-11T20:11:48.702Z,2.20
2022-12-11T20:14:24.833Z,0.93
2022-12-11T20:17:13.884Z,1.67
2022-12-11T20:19:45.327Z,1.70
2022-12-11T20:22:14.732Z,1.77
2022-12-11T20:24:43.587Z,1.83
2022-12-11T20:27:12.757Z,1.92
2022-12-11T20:29:41.668Z,1.90
2022-12-11T20:32:12.475Z,1.30
2022-12-11T20:34:41.364Z,2.38
2022-12-11T20:37:11.622Z,1.35
2022-12-11T20:39:40.588Z,1.75
2022-12-11T20:42:11.884Z,0.93
2022-12-11T20:44:44.142Z,1.87
2022-12-11T20:47:19.795Z,1.38
2022-12-11T20:49:49.655Z,1.42
2022-12-11T20:52:20.425Z,1.52
2022-12-11T20:54:49.230Z,2.28
2022-12-11T20:57:18.017Z,2.60
2022-12-11T20:59:47.400Z,1.70
2022-12-11T21:02:16.134Z,1.35
2022-12-11T21:04:44.951Z,1.92
2022-12-11T21:07:13.843Z,1.48
2022-12-11T21:09:44.063Z,1.57
2022-12-11T21:12:12.772Z,2.80
2022-12-11T21:14:42.740Z,2.45
2022-12-11T21:17:11.470Z,1.58
2022-12-11T21:19:40.891Z,1.40
2022-12-11T21:22:09.787Z,1.73
2022-12-11T21:24:39.063Z,1.35
2022-12-11T21:27:09.386Z,1.55
2022-12-11T21:29:38.344Z,2.05
2022-12-11T21:32:07.732Z,1.60
2022-12-11T21:34:37.874Z,1.87
2022-12-11T21:37:07.559Z,1.17
2022-12-11T21:39:39.263Z,1.52
2022-12-11T21:42:10.292Z,0.90
2022-12-11T21:47:28.869Z,1.10
2022-12-11T21:49:57.504Z,1.45
2022-12-11T21:52:26.284Z,1.02
2022-12-11T21:54:54.953Z,1.25
2022-12-11T21:57:26.857Z,1.02
2022-12-11T21:59:55.818Z,0.90
2022-12-11T22:02:24.738Z,1.48
2022-12-11T22:04:53.708Z,0.93
2022-12-11T22:07:24.001Z,1.10
2022-12-11T22:09:52.711Z,0.57
2022-12-11T22:12:28.926Z,0.80
2022-12-11T22:14:59.394Z,0.70
2022-12-11T22:17:29.222Z,1.85
2022-12-11T22:19:57.940Z,0.60
2022-12-11T22:22:26.964Z,0.88
2022-12-11T22:24:56.484Z,1.33
2022-12-11T22:27:26.725Z,1.75
2022-12-11T22:29:56.093Z,0.90
2022-12-11T22:32:25.279Z,1.08
2022-12-11T22:34:54.235Z,0.77
2022-12-11T22:37:23.054Z,1.63
2022-12-11T22:39:52.077Z,1.10
2022-12-11T22:42:20.977Z,1.33
2022-12-11T22:44:51.081Z,1.25
2022-12-11T22:47:19.977Z,0.75
2022-12-11T22:49:48.668Z,1.20
2022-12-11T22:52:17.465Z,0.45
2022-12-11T22:54:47.205Z,0.40
2022-12-11T22:57:16.129Z,1.00
2022-12-11T22:59:44.828Z,1.25
2022-12-11T23:02:15.448Z,1.03
2022-12-11T23:04:47.560Z,1.75
2022-12-11T23:07:17.102Z,0.80
2022-12-11T23:09:50.464Z,1.00
2022-12-11T23:12:19.861Z,0.73
2022-12-11T23:14:49.363Z,1.13
2022-12-11T23:17:21.266Z,0.77
2022-12-11T23:19:50.097Z,0.77
2022-12-11T23:22:19.442Z,1.48
2022-12-11T23:24:48.146Z,1.15
2022-12-11T23:27:16.874Z,1.30
2022-12-11T23:29:45.863Z,1.02
2022-12-11T23:32:14.546Z,0.52
2022-12-11T23:34:44.656Z,1.45
2022-12-11T23:37:16.047Z,0.77
2022-12-11T23:39:47.669Z,1.20
2022-12-11T23:42:16.520Z,1.50
2022-12-11T23:44:45.461Z,1.25
2022-12-11T23:47:14.852Z,0.93
2022-12-11T23:49:48.581Z,0.50
2022-12-11T23:52:20.689Z,0.80
2022-12-11T23:54:55.154Z,0.70
2022-12-11T23:57:24.553Z,1.67
2022-12-11T23:59:54.529Z,1.60
